createdAt,value
2018-12-26T00:01:55.006Z,11.80
2018-12-26T00:04:35.861Z,11.30
2018-12-26T00:07:17.308Z,11.93
2018-12-26T00:09:58.516Z,12.40
2018-12-26T00:12:38.994Z,11.83
2018-12-26T00:15:19.802Z,11.93
2018-12-26T00:18:00.590Z,11.45
2018-12-26T00:20:41.618Z,13.50
2018-12-26T00:23:22.086Z,12.30
2018-12-26T00:26:02.954Z,11.93
2018-12-26T00:28:43.753Z,13.40
2018-12-26T00:31:12.942Z,11.83
2018-12-26T00:34:01.134Z,12.55
2018-12-26T00:36:42.626Z,12.40
2018-12-26T00:39:23.228Z,12.73
2018-12-26T00:42:03.741Z,12.68
2018-12-26T00:44:44.154Z,11.95
2018-12-26T00:47:25.084Z,11.65
2018-12-26T00:50:05.803Z,12.63
2018-12-26T00:52:46.547Z,12.43
2018-12-26T00:55:27.289Z,11.10
2018-12-26T00:58:07.802Z,11.45
2018-12-26T01:00:48.467Z,12.05
2018-12-26T01:03:30.300Z,11.65
2018-12-26T01:06:11.169Z,13.95
2018-12-26T01:08:52.086Z,12.43
2018-12-26T01:11:33.006Z,12.43
2018-12-26T01:14:13.881Z,12.13
2018-12-26T01:16:54.534Z,11.80
2018-12-26T01:19:35.138Z,12.40
2018-12-26T01:22:16.038Z,11.05
2018-12-26T01:24:56.559Z,12.95
2018-12-26T01:27:37.321Z,11.55
2018-12-26T01:30:18.288Z,13.10
2018-12-26T01:32:58.862Z,13.03
2018-12-26T01:35:40.169Z,13.00
2018-12-26T01:38:20.774Z,12.40
2018-12-26T01:41:02.107Z,13.65
2018-12-26T01:43:43.358Z,13.43
2018-12-26T01:46:24.709Z,12.75
2018-12-26T01:48:53.977Z,13.70
2018-12-26T01:51:42.254Z,14.03
2018-12-26T01:54:30.541Z,12.58
2018-12-26T01:57:11.395Z,13.70
2018-12-26T01:59:52.269Z,13.30
2018-12-26T02:02:33.065Z,13.00
2018-12-26T02:05:13.931Z,14.03
2018-12-26T02:07:54.800Z,13.05
2018-12-26T02:10:35.553Z,14.07
2018-12-26T02:13:16.515Z,12.90
2018-12-26T02:15:57.157Z,12.50
2018-12-26T02:18:26.289Z,13.05
2018-12-26T02:21:14.610Z,12.63
2018-12-26T02:24:02.894Z,13.78
2018-12-26T02:26:36.411Z,13.13
2018-12-26T02:29:02.953Z,12.50
2018-12-26T02:31:51.213Z,13.70
2018-12-26T02:34:39.433Z,12.70
2018-12-26T02:37:20.690Z,12.75
2018-12-26T02:40:01.229Z,14.20
2018-12-26T02:42:42.314Z,13.03
2018-12-26T02:45:22.925Z,13.05
2018-12-26T02:48:03.723Z,14.20
2018-12-26T02:50:44.564Z,14.10
2018-12-26T02:53:25.680Z,12.68
2018-12-26T02:56:06.407Z,15.20
2018-12-26T02:58:35.570Z,13.70
2018-12-26T03:01:23.785Z,12.80
2018-12-26T03:04:11.985Z,14.00
2018-12-26T03:06:52.477Z,14.60
2018-12-26T03:09:33.246Z,14.35
2018-12-26T03:12:13.777Z,14.70
2018-12-26T03:14:42.896Z,12.80
2018-12-26T03:20:30.411Z,13.20
2018-12-26T03:23:14.509Z,13.15
2018-12-26T03:25:55.861Z,13.70
2018-12-26T03:28:36.296Z,12.80
2018-12-26T03:31:17.563Z,12.58
2018-12-26T03:33:58.950Z,12.80
2018-12-26T03:36:40.026Z,13.03
2018-12-26T03:39:21.399Z,13.00
2018-12-26T03:42:02.109Z,14.98
2018-12-26T03:44:43.455Z,13.08
2018-12-26T03:47:23.914Z,15.10
2018-12-26T03:50:04.665Z,13.83
2018-12-26T03:52:45.606Z,13.60
2018-12-26T03:55:26.909Z,13.83
2018-12-26T03:58:07.489Z,13.40
2018-12-26T04:00:48.170Z,14.03
2018-12-26T04:03:28.851Z,14.65
2018-12-26T04:06:09.512Z,13.28
2018-12-26T04:08:50.302Z,14.30
2018-12-26T04:11:31.743Z,14.98
2018-12-26T04:14:12.366Z,14.07
2018-12-26T04:16:53.509Z,15.95
2018-12-26T04:19:34.794Z,14.28
2018-12-26T04:22:15.558Z,16.85
2018-12-26T04:24:56.460Z,15.28
2018-12-26T04:27:37.497Z,14.50
2018-12-26T04:30:18.544Z,15.30
2018-12-26T04:32:59.849Z,15.68
2018-12-26T04:35:41.162Z,17.12
2018-12-26T04:38:22.049Z,16.35
2018-12-26T04:41:03.450Z,16.70
2018-12-26T04:43:44.417Z,16.17
2018-12-26T04:46:25.106Z,16.32
2018-12-26T04:49:05.694Z,15.85
2018-12-26T04:51:46.779Z,14.93
2018-12-26T04:54:27.866Z,15.80
2018-12-26T04:57:09.263Z,17.55
2018-12-26T04:59:50.446Z,15.10
2018-12-26T05:02:31.708Z,16.02
2018-12-26T05:05:12.274Z,17.82
2018-12-26T05:07:53.035Z,17.23
2018-12-26T05:10:22.192Z,17.67
2018-12-26T05:13:10.482Z,17.25
2018-12-26T05:15:51.619Z,17.17
2018-12-26T05:18:32.940Z,20.35
2018-12-26T05:21:14.069Z,20.40
2018-12-26T05:23:55.319Z,18.23
2018-12-26T05:26:36.126Z,17.80
2018-12-26T05:29:17.291Z,17.42
2018-12-26T05:31:58.273Z,19.20
2018-12-26T05:34:38.861Z,18.12
2018-12-26T05:37:20.037Z,18.32
2018-12-26T05:40:01.316Z,18.27
2018-12-26T05:42:42.341Z,18.67
2018-12-26T05:45:22.822Z,18.10
2018-12-26T05:48:03.929Z,15.35
2018-12-26T05:50:44.427Z,17.15
2018-12-26T05:53:25.734Z,19.40
2018-12-26T05:56:06.837Z,17.45
2018-12-26T05:58:47.513Z,16.48
2018-12-26T06:01:28.249Z,16.90
2018-12-26T06:07:07.770Z,20.15
2018-12-26T06:09:48.418Z,18.85
2018-12-26T06:12:29.217Z,18.95
2018-12-26T06:15:09.968Z,19.02
2018-12-26T06:17:51.241Z,18.20
2018-12-26T06:20:32.564Z,17.20
2018-12-26T06:23:13.257Z,21.68
2018-12-26T06:25:53.623Z,19.20
2018-12-26T06:28:34.956Z,18.92
2018-12-26T06:31:16.359Z,20.17
2018-12-26T06:33:57.657Z,21.77
2018-12-26T06:36:38.139Z,20.85
2018-12-26T06:39:18.940Z,18.73
2018-12-26T06:41:59.394Z,18.70
2018-12-26T06:44:40.284Z,19.05
2018-12-26T06:47:20.643Z,20.77
2018-12-26T06:50:01.409Z,16.05
2018-12-26T06:52:41.872Z,21.57
2018-12-26T06:55:22.673Z,19.80
2018-12-26T06:58:03.761Z,22.35
2018-12-26T07:00:44.314Z,19.25
2018-12-26T07:03:13.430Z,20.37
2018-12-26T07:05:42.582Z,20.40
2018-12-26T07:08:30.829Z,22.17
2018-12-26T07:11:00.538Z,19.75
2018-12-26T07:16:44.052Z,21.27
2018-12-26T07:19:24.587Z,19.25
2018-12-26T07:22:05.198Z,17.37
2018-12-26T07:24:46.035Z,17.52
2018-12-26T07:27:26.988Z,18.42
2018-12-26T07:30:07.643Z,18.50
2018-12-26T07:32:48.348Z,18.65
2018-12-26T07:35:29.153Z,19.75
2018-12-26T07:38:10.105Z,18.12
2018-12-26T07:40:50.844Z,18.75
2018-12-26T07:43:31.527Z,18.52
2018-12-26T07:46:12.204Z,18.98
2018-12-26T07:48:52.970Z,19.60
2018-12-26T07:51:22.099Z,20.80
2018-12-26T07:53:51.256Z,21.95
2018-12-26T07:56:39.463Z,17.23
2018-12-26T07:59:20.107Z,18.23
2018-12-26T08:02:01.549Z,21.17
2018-12-26T08:04:42.820Z,18.65
2018-12-26T08:07:24.176Z,19.73
2018-12-26T08:10:05.229Z,20.48
2018-12-26T08:12:45.939Z,20.52
2018-12-26T08:15:26.713Z,19.23
2018-12-26T08:18:07.382Z,19.70
2018-12-26T08:20:48.093Z,19.57
2018-12-26T08:23:29.170Z,19.82
2018-12-26T08:26:10.581Z,19.35
2018-12-26T08:28:51.418Z,19.62
2018-12-26T08:31:32.150Z,20.02
2018-12-26T08:34:12.897Z,21.20
2018-12-26T08:36:54.152Z,19.90
2018-12-26T08:39:35.066Z,22.55
2018-12-26T08:42:18.186Z,21.80
2018-12-26T08:44:59.322Z,20.62
2018-12-26T08:47:40.536Z,17.90
2018-12-26T08:50:21.345Z,21.45
2018-12-26T08:53:03.326Z,18.37
2018-12-26T08:55:44.141Z,20.10
2018-12-26T08:58:25.088Z,19.62
2018-12-26T09:01:05.984Z,20.20
2018-12-26T09:03:46.803Z,20.62
2018-12-26T09:06:27.557Z,20.75
2018-12-26T09:09:09.022Z,20.55
2018-12-26T09:11:50.170Z,19.75
2018-12-26T09:14:31.358Z,18.98
2018-12-26T09:17:12.467Z,20.55
2018-12-26T09:19:53.230Z,18.60
2018-12-26T09:22:34.488Z,20.43
2018-12-26T09:25:15.218Z,20.08
2018-12-26T09:27:56.191Z,17.60
2018-12-26T09:30:37.165Z,18.82
2018-12-26T09:33:17.689Z,22.25
2018-12-26T09:35:58.327Z,20.08
2018-12-26T09:38:39.683Z,17.95
2018-12-26T09:41:20.973Z,19.73
2018-12-26T09:44:01.617Z,20.25
2018-12-26T09:46:42.311Z,20.70
2018-12-26T09:49:23.590Z,18.77
2018-12-26T09:52:04.449Z,17.15
2018-12-26T09:54:45.898Z,18.67
2018-12-26T09:57:26.802Z,20.45
2018-12-26T10:00:07.533Z,21.97
2018-12-26T10:02:48.541Z,20.15
2018-12-26T10:05:29.440Z,20.08
2018-12-26T10:08:10.486Z,19.37
2018-12-26T10:10:51.337Z,21.07
2018-12-26T10:13:32.262Z,19.48
2018-12-26T10:16:13.121Z,18.70
2018-12-26T10:18:54.160Z,19.77
2018-12-26T10:21:35.169Z,19.02
2018-12-26T10:24:16.068Z,16.65
2018-12-26T10:26:57.153Z,16.73
2018-12-26T10:29:37.730Z,17.77
2018-12-26T10:32:18.311Z,17.25
2018-12-26T10:34:59.285Z,18.15
2018-12-26T10:37:41.102Z,14.98
2018-12-26T10:40:21.935Z,18.35
2018-12-26T10:43:03.225Z,17.82
2018-12-26T10:45:44.164Z,16.97
2018-12-26T10:48:25.326Z,16.90
2018-12-26T10:51:06.906Z,19.32
2018-12-26T10:53:47.764Z,18.80
2018-12-26T10:56:28.574Z,20.88
2018-12-26T10:59:13.897Z,17.60
2018-12-26T11:01:40.736Z,19.32
2018-12-26T11:04:29.010Z,18.92
2018-12-26T11:07:17.269Z,17.57
2018-12-26T11:09:57.991Z,18.80
2018-12-26T11:12:38.688Z,18.32
2018-12-26T11:15:19.574Z,19.32
2018-12-26T11:18:00.169Z,17.32
2018-12-26T11:20:41.141Z,19.05
2018-12-26T11:23:22.384Z,16.52
2018-12-26T11:26:03.343Z,18.15
2018-12-26T11:28:44.066Z,17.35
2018-12-26T11:31:24.988Z,17.35
2018-12-26T11:34:05.577Z,18.32
2018-12-26T11:36:47.125Z,19.52
2018-12-26T11:39:27.939Z,16.48
2018-12-26T11:42:08.622Z,18.27
2018-12-26T11:44:49.041Z,15.88
2018-12-26T11:47:29.858Z,17.57
2018-12-26T11:50:10.430Z,18.70
2018-12-26T11:52:51.362Z,16.87
2018-12-26T11:55:32.634Z,17.45
2018-12-26T11:58:14.110Z,18.23
2018-12-26T12:00:54.580Z,19.32
2018-12-26T12:03:35.926Z,19.02
2018-12-26T12:06:17.160Z,17.37
2018-12-26T12:08:58.107Z,16.17
2018-12-26T12:11:39.394Z,16.52
2018-12-26T12:14:20.286Z,16.55
2018-12-26T12:16:49.514Z,16.60
2018-12-26T12:19:37.772Z,16.87
2018-12-26T12:22:26.041Z,15.23
2018-12-26T12:25:06.864Z,16.35
2018-12-26T12:27:48.451Z,14.78
2018-12-26T12:30:29.870Z,17.65
2018-12-26T12:33:10.640Z,15.45
2018-12-26T12:35:51.441Z,16.17
2018-12-26T12:38:32.570Z,16.42
2018-12-26T12:41:13.429Z,17.67
2018-12-26T12:43:53.826Z,19.40
2018-12-26T12:46:34.797Z,15.55
2018-12-26T12:49:15.660Z,17.23
2018-12-26T12:51:56.041Z,17.17
2018-12-26T12:54:37.434Z,17.98
2018-12-26T12:57:18.624Z,17.48
2018-12-26T12:59:59.322Z,18.07
2018-12-26T13:02:40.621Z,16.27
2018-12-26T13:05:21.776Z,15.98
2018-12-26T13:08:02.980Z,14.60
2018-12-26T13:10:44.411Z,15.38
2018-12-26T13:13:25.165Z,15.25
2018-12-26T13:16:06.546Z,13.55
2018-12-26T13:18:47.651Z,16.10
2018-12-26T13:21:28.146Z,14.43
2018-12-26T13:24:09.139Z,15.72
2018-12-26T13:26:49.706Z,14.28
2018-12-26T13:29:30.642Z,14.30
2018-12-26T13:32:11.273Z,16.93
2018-12-26T13:34:51.722Z,17.87
2018-12-26T13:37:32.727Z,15.32
2018-12-26T13:40:14.012Z,15.50
2018-12-26T13:42:54.706Z,16.95
2018-12-26T13:45:35.921Z,13.80
2018-12-26T13:48:16.583Z,16.10
2018-12-26T13:50:57.414Z,15.78
2018-12-26T13:53:38.718Z,18.50
2018-12-26T13:56:19.173Z,16.65
2018-12-26T13:58:59.827Z,16.20
2018-12-26T14:01:40.704Z,18.48
2018-12-26T14:04:21.576Z,17.48
2018-12-26T14:07:02.794Z,16.70
2018-12-26T14:09:44.154Z,16.62
2018-12-26T14:12:25.982Z,16.75
2018-12-26T14:15:07.359Z,17.23
2018-12-26T14:17:47.915Z,18.55
2018-12-26T14:20:28.300Z,17.70
2018-12-26T14:23:09.173Z,16.73
2018-12-26T14:25:50.478Z,18.98
2018-12-26T14:28:31.775Z,18.37
2018-12-26T14:31:12.322Z,15.45
2018-12-26T14:33:53.553Z,17.02
2018-12-26T14:36:33.985Z,16.77
2018-12-26T14:39:14.716Z,16.93
2018-12-26T14:41:56.649Z,16.55
2018-12-26T14:44:37.212Z,17.90
2018-12-26T14:47:17.614Z,16.90
2018-12-26T14:49:58.951Z,18.05
2018-12-26T14:52:39.994Z,17.92
2018-12-26T14:55:21.000Z,17.07
2018-12-26T14:58:01.451Z,16.52
2018-12-26T15:00:43.211Z,15.85
2018-12-26T15:03:24.349Z,17.45
2018-12-26T15:06:04.977Z,15.15
2018-12-26T15:08:45.881Z,18.00
2018-12-26T15:11:26.737Z,18.20
2018-12-26T15:14:08.009Z,16.95
2018-12-26T15:16:48.430Z,18.05
2018-12-26T15:19:29.846Z,17.90
2018-12-26T15:22:10.432Z,18.52
2018-12-26T15:24:51.087Z,17.20
2018-12-26T15:27:32.292Z,19.48
2018-12-26T15:30:13.412Z,19.07
2018-12-26T15:32:54.643Z,19.62
2018-12-26T15:35:36.091Z,19.85
2018-12-26T15:38:16.654Z,18.25
2018-12-26T15:40:57.279Z,19.80
2018-12-26T15:43:37.709Z,19.67
2018-12-26T15:46:18.123Z,18.98
2018-12-26T15:48:58.733Z,19.40
2018-12-26T15:51:39.419Z,20.17
2018-12-26T15:54:20.895Z,21.10
2018-12-26T15:57:02.032Z,19.23
2018-12-26T15:59:42.444Z,20.85
2018-12-26T16:02:23.702Z,19.87
2018-12-26T16:05:04.592Z,21.95
2018-12-26T16:07:45.822Z,21.48
2018-12-26T16:10:15.112Z,18.05
2018-12-26T16:13:03.344Z,21.80
2018-12-26T16:15:52.810Z,21.15
2018-12-26T16:18:34.517Z,20.12
2018-12-26T16:21:15.666Z,22.98
2018-12-26T16:23:56.565Z,19.92
2018-12-26T16:26:37.274Z,20.25
2018-12-26T16:29:17.749Z,21.00
2018-12-26T16:31:58.978Z,21.60
2018-12-26T16:34:40.246Z,23.22
2018-12-26T16:37:20.927Z,22.85
2018-12-26T16:40:02.005Z,23.40
2018-12-26T16:42:42.905Z,22.17
2018-12-26T16:45:24.219Z,22.48
2018-12-26T16:48:05.482Z,22.75
2018-12-26T16:50:46.758Z,22.87
2018-12-26T16:53:27.814Z,21.40
2018-12-26T16:56:09.061Z,21.65
2018-12-26T16:58:49.945Z,22.75
2018-12-26T17:01:19.098Z,21.30
2018-12-26T17:03:48.228Z,20.95
2018-12-26T17:06:17.357Z,23.25
2018-12-26T17:09:07.036Z,20.55
2018-12-26T17:11:55.348Z,20.32
2018-12-26T17:14:36.490Z,20.23
2018-12-26T17:17:17.278Z,20.37
2018-12-26T17:19:58.178Z,22.10
2018-12-26T17:22:27.313Z,21.17
2018-12-26T17:25:15.642Z,20.70
2018-12-26T17:28:03.992Z,21.87
2018-12-26T17:30:45.278Z,19.82
2018-12-26T17:33:26.026Z,19.15
2018-12-26T17:36:07.089Z,20.32
2018-12-26T17:38:48.255Z,18.55
2018-12-26T17:41:28.902Z,20.77
2018-12-26T17:44:09.764Z,21.90
2018-12-26T17:46:50.694Z,21.48
2018-12-26T17:49:31.365Z,20.90
2018-12-26T17:52:12.374Z,21.42
2018-12-26T17:54:53.652Z,22.60
2018-12-26T17:57:34.246Z,21.33
2018-12-26T18:00:14.892Z,23.02
2018-12-26T18:02:55.942Z,21.50
2018-12-26T18:05:37.265Z,22.45
2018-12-26T18:08:21.193Z,21.95
2018-12-26T18:10:50.317Z,20.82
2018-12-26T18:13:19.476Z,21.25
2018-12-26T18:16:07.700Z,23.83
2018-12-26T18:18:37.321Z,24.10
2018-12-26T18:21:07.541Z,23.20
2018-12-26T18:23:37.357Z,22.65
2018-12-26T18:26:25.686Z,24.07
2018-12-26T18:29:14.041Z,23.75
2018-12-26T18:31:55.302Z,25.17
2018-12-26T18:34:35.965Z,24.92
2018-12-26T18:37:16.775Z,26.57
2018-12-26T18:39:57.607Z,27.62
2018-12-26T18:42:38.480Z,24.50
2018-12-26T18:45:19.596Z,24.18
2018-12-26T18:48:00.429Z,24.23
2018-12-26T18:50:40.917Z,22.93
2018-12-26T18:53:22.109Z,22.60
2018-12-26T18:56:02.612Z,23.62
2018-12-26T18:58:43.243Z,20.88
2018-12-26T19:01:12.395Z,22.35
2018-12-26T19:04:00.634Z,22.93
2018-12-26T19:06:48.865Z,21.70
2018-12-26T19:09:29.833Z,21.95
2018-12-26T19:12:11.070Z,24.27
2018-12-26T19:14:51.594Z,21.27
2018-12-26T19:17:32.125Z,22.37
2018-12-26T19:20:13.531Z,24.10
2018-12-26T19:22:54.398Z,23.67
2018-12-26T19:25:35.601Z,21.70
2018-12-26T19:28:16.046Z,21.55
2018-12-26T19:30:56.449Z,21.75
2018-12-26T19:33:37.038Z,22.52
2018-12-26T19:36:17.829Z,24.60
2018-12-26T19:38:59.099Z,23.67
2018-12-26T19:41:40.095Z,24.47
2018-12-26T19:44:09.262Z,25.32
2018-12-26T19:46:57.507Z,23.15
2018-12-26T19:49:38.522Z,25.20
2018-12-26T19:52:18.954Z,23.35
2018-12-26T19:55:00.078Z,23.52
2018-12-26T19:57:40.827Z,23.38
2018-12-26T20:00:21.861Z,23.62
2018-12-26T20:03:03.157Z,24.20
2018-12-26T20:05:43.972Z,22.15
2018-12-26T20:08:25.228Z,21.68
2018-12-26T20:11:06.205Z,22.42
2018-12-26T20:13:46.578Z,19.00
2018-12-26T20:16:27.289Z,21.35
2018-12-26T20:19:08.217Z,22.05
2018-12-26T20:21:49.205Z,20.70
2018-12-26T20:24:30.039Z,22.55
2018-12-26T20:27:10.501Z,23.38
2018-12-26T20:29:51.705Z,25.40
2018-12-26T20:32:32.192Z,25.95
2018-12-26T20:35:14.963Z,25.62
2018-12-26T20:37:55.689Z,25.05
2018-12-26T20:40:36.821Z,24.80
2018-12-26T20:43:18.041Z,24.35
2018-12-26T20:45:59.234Z,26.77
2018-12-26T20:48:40.237Z,26.23
2018-12-26T20:51:20.677Z,26.17
2018-12-26T20:54:01.842Z,25.82
2018-12-26T20:56:42.968Z,25.10
2018-12-26T20:59:23.375Z,26.30
2018-12-26T21:02:05.761Z,26.35
2018-12-26T21:04:46.959Z,24.90
2018-12-26T21:07:28.436Z,27.13
2018-12-26T21:10:09.006Z,24.52
2018-12-26T21:12:49.741Z,23.80
2018-12-26T21:15:30.789Z,27.42
2018-12-26T21:18:12.296Z,26.40
2018-12-26T21:20:53.622Z,26.97
2018-12-26T21:23:34.130Z,26.55
2018-12-26T21:26:14.744Z,26.40
2018-12-26T21:28:55.726Z,29.65
2018-12-26T21:31:36.977Z,27.37
2018-12-26T21:34:19.468Z,28.50
2018-12-26T21:37:00.824Z,26.95
2018-12-26T21:39:41.213Z,28.90
2018-12-26T21:42:25.203Z,27.52
2018-12-26T21:45:06.209Z,29.20
2018-12-26T21:47:46.774Z,27.45
2018-12-26T21:50:28.215Z,31.30
2018-12-26T21:53:09.414Z,30.32
2018-12-26T21:55:50.216Z,30.90
2018-12-26T21:58:31.430Z,27.55
2018-12-26T22:01:12.077Z,27.15
2018-12-26T22:03:52.925Z,26.37
2018-12-26T22:06:34.201Z,26.73
2018-12-26T22:09:15.041Z,24.32
2018-12-26T22:11:55.858Z,24.37
2018-12-26T22:14:25.052Z,24.23
2018-12-26T22:16:54.265Z,23.38
2018-12-26T22:19:42.613Z,24.80
2018-12-26T22:22:30.843Z,25.60
2018-12-26T22:25:13.641Z,24.45
2018-12-26T22:27:54.562Z,24.37
2018-12-26T22:30:35.431Z,22.90
2018-12-26T22:33:16.293Z,24.25
2018-12-26T22:35:56.993Z,23.98
2018-12-26T22:38:37.793Z,24.40
2018-12-26T22:41:18.965Z,26.77
2018-12-26T22:44:00.153Z,24.07
2018-12-26T22:46:41.420Z,22.80
2018-12-26T22:49:21.972Z,23.57
2018-12-26T22:52:03.168Z,24.72
2018-12-26T22:54:43.678Z,21.05
2018-12-26T22:57:25.055Z,22.35
2018-12-26T23:00:05.765Z,24.35
2018-12-26T23:02:47.091Z,23.50
2018-12-26T23:05:27.975Z,23.98
2018-12-26T23:08:08.746Z,22.85
2018-12-26T23:10:49.345Z,22.62
2018-12-26T23:13:30.021Z,25.25
2018-12-26T23:16:10.643Z,19.60
2018-12-26T23:18:51.327Z,22.07
2018-12-26T23:21:31.906Z,22.48
2018-12-26T23:24:12.394Z,21.55
2018-12-26T23:26:53.489Z,21.97
2018-12-26T23:29:34.117Z,21.57
2018-12-26T23:32:15.511Z,22.22
2018-12-26T23:34:56.701Z,21.90
2018-12-26T23:37:37.667Z,21.55
2018-12-26T23:40:19.010Z,19.45
2018-12-26T23:42:59.953Z,22.70
2018-12-26T23:45:41.292Z,23.67
2018-12-26T23:48:22.334Z,24.20
2018-12-26T23:51:03.160Z,21.57
2018-12-26T23:53:44.129Z,23.00
2018-12-26T23:56:25.188Z,21.93
2018-12-26T23:58:54.393Z,21.50
